Time;durP1;ratioP1;P1;durP2;ratioP2;P2;SDS_P1;SDS_P2;PMS_P1;PMS_P2;Temp;Humidity;BMP_temperature;BMP_pressure;BME280_temperature;BME280_humidity;BME280_pressure;Samples;Min_cycle;Max_cycle;Signal;HPM_P1;HPM_P2
2022/05/08 04:02:31;;;;;;;4.68;2.70;;;7.40;99.90;;;;;;5019006;23;20232;-67
2022/05/08 04:05:00;;;;;;;3.20;2.58;;;7.40;99.90;;;;;;4975148;28;20275;-68
2022/05/08 04:07:26;;;;;;;2.85;2.70;;;7.40;99.90;;;;;;4974713;28;20240;-68
2022/05/08 04:09:53;;;;;;;6.32;2.72;;;7.50;99.90;;;;;;4974590;28;20215;-68
2022/05/08 04:12:20;;;;;;;5.47;2.35;;;7.50;99.90;;;;;;4974527;28;20233;-69
2022/05/08 04:14:49;;;;;;;4.15;2.80;;;7.50;99.90;;;;;;4974692;28;20216;-68
2022/05/08 04:17:16;;;;;;;4.90;2.28;;;7.50;99.90;;;;;;4974491;28;20685;-69
2022/05/08 04:19:46;;;;;;;5.65;2.60;;;7.60;99.90;;;;;;4966196;28;20220;-70
2022/05/08 04:24:58;;;;;;;4.38;2.65;;;7.60;99.90;;;;;;4974359;28;20328;-69
2022/05/08 04:27:24;;;;;;;10.93;3.08;;;7.60;99.90;;;;;;4974390;28;20209;-69
2022/05/08 04:29:51;;;;;;;8.55;2.58;;;7.60;99.90;;;;;;4973784;28;20678;-70
2022/05/08 04:32:18;;;;;;;6.55;2.88;;;7.70;99.90;;;;;;4974231;28;20279;-70
2022/05/08 04:34:46;;;;;;;7.90;2.90;;;8.00;99.90;;;;;;4974251;28;20216;-70
2022/05/08 04:37:12;;;;;;;12.15;2.97;;;8.70;99.90;;;;;;4972971;28;20288;-70
2022/05/08 04:39:39;;;;;;;3.83;2.38;;;9.40;99.90;;;;;;4973559;28;20735;-70
2022/05/08 04:42:06;;;;;;;8.20;2.58;;;10.00;99.90;;;;;;4973389;28;20244;-70
2022/05/08 04:44:32;;;;;;;5.85;2.80;;;10.50;99.90;;;;;;4973727;28;20259;-70
2022/05/08 04:46:59;;;;;;;4.60;1.93;;;10.90;99.90;;;;;;4973886;28;20341;-70
2022/05/08 04:49:26;;;;;;;2.73;2.50;;;11.40;99.90;;;;;;4974176;28;20523;-69
2022/05/08 04:51:54;;;;;;;5.00;2.40;;;11.80;99.90;;;;;;4973060;28;20856;-70
2022/05/08 04:54:22;;;;;;;5.20;2.43;;;12.10;99.90;;;;;;4973361;28;20472;-70
2022/05/08 04:56:49;;;;;;;4.13;2.70;;;12.50;99.90;;;;;;4973608;28;20563;-69
2022/05/08 04:59:16;;;;;;;8.80;3.63;;;12.70;99.90;;;;;;4973289;28;20495;-69
2022/05/08 05:01:42;;;;;;;4.03;2.63;;;12.90;99.90;;;;;;4972982;28;21003;-70
2022/05/08 05:04:09;;;;;;;4.97;2.63;;;13.10;99.90;;;;;;4973327;28;20467;-69
2022/05/08 05:06:36;;;;;;;6.40;3.10;;;13.00;99.90;;;;;;4971843;28;20472;-70
2022/05/08 05:09:04;;;;;;;3.07;2.30;;;13.00;99.90;;;;;;4982730;28;20458;-69
2022/05/08 05:11:30;;;;;;;6.40;2.73;;;12.90;99.90;;;;;;4992252;28;20479;-69
2022/05/08 05:13:57;;;;;;;3.30;2.17;;;12.50;99.90;;;;;;4992698;28;20545;-70
2022/05/08 05:16:24;;;;;;;5.93;2.10;;;12.20;99.90;;;;;;4992585;28;20513;-69
2022/05/08 05:18:50;;;;;;;3.00;2.40;;;11.80;99.90;;;;;;4992444;28;20645;-69
2022/05/08 05:21:17;;;;;;;5.30;2.23;;;11.40;99.90;;;;;;4991574;28;20763;-69
2022/05/08 05:23:43;;;;;;;6.57;2.60;;;11.10;99.90;;;;;;4992522;28;20466;-69
2022/05/08 05:26:11;;;;;;;2.33;2.00;;;10.90;99.90;;;;;;4992458;28;20610;-70
2022/05/08 05:28:38;;;;;;;4.53;2.22;;;10.70;99.90;;;;;;4992221;28;20208;-69
2022/05/08 05:31:05;;;;;;;14.45;3.00;;;10.60;99.90;;;;;;4991855;28;20600;-70
2022/05/08 05:33:31;;;;;;;6.35;2.17;;;10.50;99.90;;;;;;4992368;28;20212;-70
2022/05/08 05:35:58;;;;;;;5.30;2.60;;;10.50;99.90;;;;;;4992136;28;20254;-70
2022/05/08 05:38:25;;;;;;;4.35;2.83;;;10.40;99.90;;;;;;4991636;28;20208;-70
2022/05/08 05:40:51;;;;;;;3.15;2.38;;;10.30;99.90;;;;;;4991588;28;20236;-69
2022/05/08 05:43:19;;;;;;;12.07;5.75;;;10.20;99.90;;;;;;4991976;28;20289;-72
2022/05/08 05:45:46;;;;;;;6.07;5.47;;;10.20;99.90;;;;;;4991951;28;20677;-70
2022/05/08 05:48:11;;;;;;;8.82;5.55;;;10.10;99.90;;;;;;4992131;28;20212;-69
2022/05/08 05:50:38;;;;;;;4.40;3.50;;;10.00;99.90;;;;;;4991500;28;20301;-69
2022/05/08 05:53:05;;;;;;;6.38;2.92;;;9.90;99.90;;;;;;4990289;28;20208;-70
2022/05/08 05:55:31;;;;;;;2.83;2.15;;;9.90;99.90;;;;;;4992047;28;20286;-71
2022/05/08 05:57:58;;;;;;;5.70;2.85;;;9.90;99.90;;;;;;4983892;28;20212;-70
2022/05/08 06:00:27;;;;;;;8.82;2.90;;;10.00;99.90;;;;;;4973201;28;20228;-69
2022/05/08 06:02:54;;;;;;;8.05;2.20;;;10.40;99.90;;;;;;4972060;28;20209;-70
2022/05/08 06:05:20;;;;;;;5.20;2.23;;;11.00;99.90;;;;;;4972450;28;20275;-70
2022/05/08 06:07:47;;;;;;;4.97;1.90;;;11.90;99.90;;;;;;4971516;28;20546;-71
2022/05/08 06:10:14;;;;;;;3.40;2.27;;;12.50;99.90;;;;;;4971773;28;20526;-71
2022/05/08 06:12:41;;;;;;;5.50;2.77;;;13.10;99.90;;;;;;4972123;28;20932;-71
2022/05/08 06:15:08;;;;;;;7.77;2.00;;;13.60;99.90;;;;;;4972014;28;20471;-71
2022/05/08 06:17:37;;;;;;;2.87;2.17;;;13.90;99.90;;;;;;4972046;28;20470;-69
2022/05/08 06:20:05;;;;;;;2.10;1.90;;;14.50;99.90;;;;;;4971417;28;21018;-69
2022/05/08 06:22:33;;;;;;;6.40;2.20;;;14.60;99.90;;;;;;4971002;28;20492;-69
2022/05/08 06:24:59;;;;;;;7.93;3.13;;;14.90;99.90;;;;;;4972037;28;20832;-69
2022/05/08 06:27:26;;;;;;;3.87;1.90;;;15.20;99.90;;;;;;4971847;28;20522;-69
2022/05/08 06:29:53;;;;;;;3.13;1.77;;;15.40;99.90;;;;;;4971939;28;20542;-69
2022/05/08 06:32:21;;;;;;;6.77;2.53;;;15.90;99.90;;;;;;4972083;28;20483;-69
2022/05/08 06:34:49;;;;;;;2.60;2.37;;;16.10;99.90;;;;;;4968946;28;20491;-69
2022/05/08 06:37:15;;;;;;;5.80;2.60;;;16.40;99.90;;;;;;4984056;28;21006;-69
2022/05/08 06:39:42;;;;;;;6.23;2.43;;;16.70;99.90;;;;;;4990843;28;20514;-69
2022/05/08 06:42:09;;;;;;;4.90;2.90;;;16.90;99.90;;;;;;4990933;28;20845;-69
2022/05/08 06:44:36;;;;;;;2.50;1.83;;;17.10;99.90;;;;;;4991129;28;20471;-69
2022/05/08 06:47:04;;;;;;;4.83;1.87;;;17.00;99.90;;;;;;4991283;28;20466;-70
2022/05/08 06:49:30;;;;;;;5.47;2.27;;;15.80;99.90;;;;;;4991122;28;20513;-68
2022/05/08 06:51:58;;;;;;;5.17;1.90;;;15.20;99.90;;;;;;4990727;28;20495;-70
2022/05/08 06:54:26;;;;;;;3.80;2.03;;;15.10;99.90;;;;;;4990630;28;20533;-70
2022/05/08 06:56:53;;;;;;;9.10;2.87;;;15.30;99.90;;;;;;4991424;28;20522;-70
2022/05/08 07:02:04;;;;;;;6.00;2.13;;;16.50;99.90;;;;;;4991106;28;20486;-69
2022/05/08 07:04:31;;;;;;;2.17;2.03;;;17.20;99.90;;;;;;4992050;28;20558;-69
2022/05/08 07:07:00;;;;;;;6.50;3.10;;;16.60;99.90;;;;;;4986868;28;20469;-69
2022/05/08 07:09:28;;;;;;;6.07;3.03;;;15.90;99.90;;;;;;4993167;28;20935;-69
2022/05/08 07:11:54;;;;;;;9.37;3.30;;;15.60;99.90;;;;;;4996072;28;20847;-68
2022/05/08 07:14:21;;;;;;;10.17;4.63;;;15.30;99.90;;;;;;4995509;28;20979;-69
2022/05/08 07:16:48;;;;;;;7.47;6.77;;;15.50;99.90;;;;;;4998133;28;20467;-71
2022/05/08 07:19:14;;;;;;;3.90;2.70;;;15.70;99.90;;;;;;4998981;28;20486;-68
2022/05/08 07:21:41;;;;;;;4.37;2.07;;;15.90;99.90;;;;;;4994951;28;20490;-69
2022/05/08 07:24:09;;;;;;;8.13;2.83;;;16.00;99.90;;;;;;4994497;28;20467;-69
2022/05/08 07:26:36;;;;;;;5.47;2.20;;;15.90;99.90;;;;;;4995134;28;20459;-69
2022/05/08 07:29:04;;;;;;;2.07;1.87;;;16.30;99.90;;;;;;4995451;28;20851;-69
2022/05/08 07:31:31;;;;;;;9.37;2.80;;;17.00;99.90;;;;;;4994824;28;20518;-69
2022/05/08 07:36:41;;;;;;;2.50;2.03;;;17.90;99.90;;;;;;4994381;28;20884;-69
2022/05/08 07:39:09;;;;;;;7.07;3.00;;;17.70;99.90;;;;;;4993998;28;20765;-69
2022/05/08 07:41:36;;;;;;;5.07;2.57;;;17.50;99.40;;;;;;4993754;28;20513;-70
2022/05/08 07:44:03;;;;;;;4.40;2.10;;;16.90;99.80;;;;;;4994451;28;20823;-69
2022/05/08 07:46:30;;;;;;;5.57;2.10;;;16.40;99.70;;;;;;4994342;28;20489;-70
2022/05/08 07:48:56;;;;;;;3.53;2.00;;;15.90;99.90;;;;;;4994112;28;20473;-70
2022/05/08 07:51:23;;;;;;;3.27;1.80;;;15.60;99.90;;;;;;4993391;28;20597;-70
2022/05/08 07:53:50;;;;;;;5.73;2.20;;;15.40;99.90;;;;;;4993856;28;20927;-69
2022/05/08 07:56:18;;;;;;;3.50;1.77;;;15.30;99.90;;;;;;4985900;28;20523;-69
2022/05/08 07:58:44;;;;;;;3.70;1.97;;;15.10;99.90;;;;;;4993979;28;20455;-69
2022/05/08 08:01:11;;;;;;;4.70;1.97;;;15.00;99.90;;;;;;4993341;28;21088;-70
2022/05/08 08:03:37;;;;;;;5.60;2.30;;;15.10;99.90;;;;;;4994182;28;20470;-69
2022/05/08 08:06:04;;;;;;;6.27;2.30;;;14.80;99.90;;;;;;4993761;28;20549;-69
2022/05/08 08:08:31;;;;;;;4.03;2.20;;;14.70;99.90;;;;;;4993669;28;20463;-70
2022/05/08 08:11:01;;;;;;;3.17;1.87;;;14.40;99.90;;;;;;4993585;28;20478;-69
2022/05/08 08:13:29;;;;;;;4.60;2.23;;;14.40;99.90;;;;;;4994032;28;20838;-69
2022/05/08 08:15:56;;;;;;;9.07;2.27;;;14.40;99.90;;;;;;4993130;28;20463;-69
2022/05/08 08:18:23;;;;;;;2.47;1.80;;;14.10;99.90;;;;;;4993607;28;20970;-69
2022/05/08 08:20:50;;;;;;;4.97;2.03;;;13.90;99.90;;;;;;4993193;28;20549;-71
2022/05/08 08:23:17;;;;;;;4.83;2.10;;;14.00;99.90;;;;;;4993180;28;20494;-71
2022/05/08 08:25:44;;;;;;;2.73;1.67;;;13.90;99.90;;;;;;4993888;28;20896;-70
2022/05/08 08:28:11;;;;;;;2.03;1.73;;;13.90;99.90;;;;;;4993555;28;20546;-70
2022/05/08 08:30:39;;;;;;;4.27;2.73;;;13.80;99.90;;;;;;4993107;28;20770;-70
2022/05/08 08:33:06;;;;;;;2.73;1.93;;;13.70;99.90;;;;;;4993488;28;20898;-71
2022/05/08 08:35:33;;;;;;;3.03;1.60;;;13.70;99.90;;;;;;4980199;28;20882;-69
2022/05/08 08:38:00;;;;;;;5.70;2.33;;;13.60;99.90;;;;;;4992620;28;20290;-70
2022/05/08 08:40:27;;;;;;;3.23;1.77;;;13.70;99.90;;;;;;4992697;28;20223;-69
2022/05/08 08:42:56;;;;;;;3.07;2.00;;;13.70;99.90;;;;;;4993189;28;20467;-69
2022/05/08 08:48:22;;;;;;;8.40;1.90;;;13.90;99.90;;;;;;4993399;28;20450;-71
2022/05/08 08:50:48;;;;;;;2.73;1.67;;;13.80;99.90;;;;;;4992741;28;20486;-69
2022/05/08 08:53:15;;;;;;;5.37;2.10;;;13.80;99.90;;;;;;4992070;28;20466;-69
2022/05/08 08:55:42;;;;;;;3.40;1.43;;;13.70;99.90;;;;;;4993049;28;20462;-69
2022/05/08 08:58:08;;;;;;;4.17;2.27;;;13.70;99.90;;;;;;4992876;28;20466;-69
2022/05/08 09:00:35;;;;;;;3.60;2.00;;;13.60;99.90;;;;;;4992175;28;20498;-68
2022/05/08 09:03:02;;;;;;;8.10;1.97;;;13.80;99.90;;;;;;4992905;28;20463;-69
2022/05/08 09:05:30;;;;;;;3.30;1.90;;;13.80;99.90;;;;;;4992738;28;20471;-70
2022/05/08 09:07:58;;;;;;;1.70;1.60;;;13.80;99.90;;;;;;4991794;28;20788;-69
2022/05/08 09:10:27;;;;;;;2.07;1.97;;;13.80;99.90;;;;;;4992416;28;20579;-70
2022/05/08 09:13:05;;;;;;;2.23;1.67;;;13.70;99.90;;;;;;4993048;28;20478;-69
2022/05/08 09:15:34;;;;;;;7.20;2.10;;;13.70;99.90;;;;;;4993016;28;20466;-70
2022/05/08 09:18:02;;;;;;;1.90;1.80;;;13.80;99.90;;;;;;4992517;28;20923;-69
2022/05/08 09:20:33;;;;;;;3.17;1.80;;;13.80;99.90;;;;;;4991848;28;20491;-70
2022/05/08 09:23:09;;;;;;;2.30;1.73;;;13.80;99.90;;;;;;4992076;28;20545;-70
2022/05/08 09:25:51;;;;;;;4.17;2.40;;;13.80;98.80;;;;;;4986145;28;20470;-69
2022/05/08 09:28:19;;;;;;;7.17;2.30;;;13.90;98.90;;;;;;4993617;28;20462;-70
2022/05/08 09:31:04;;;;;;;2.60;1.90;;;14.00;98.80;;;;;;4992580;28;20578;-69
2022/05/08 09:33:33;;;;;;;3.10;2.40;;;13.90;97.20;;;;;;4992842;28;20471;-68
2022/05/08 09:36:03;;;;;;;3.20;2.00;;;14.00;98.70;;;;;;4991935;28;20818;-68
2022/05/08 09:38:50;;;;;;;5.23;1.80;;;14.00;97.10;;;;;;4991910;28;20468;-67
2022/05/08 09:41:19;;;;;;;2.60;2.40;;;14.10;98.00;;;;;;4991483;28;20863;-69
2022/05/08 09:43:47;;;;;;;2.30;1.47;;;14.30;98.50;;;;;;4992478;28;20462;-69
2022/05/08 09:46:13;;;;;;;2.40;2.00;;;14.30;98.10;;;;;;4992138;28;20467;-69
2022/05/08 09:48:40;;;;;;;2.20;1.60;;;14.20;96.40;;;;;;4992075;28;20463;-68
2022/05/08 09:51:09;;;;;;;7.53;2.27;;;14.30;97.10;;;;;;4990658;28;20537;-69
2022/05/08 09:53:38;;;;;;;5.10;2.00;;;14.30;98.60;;;;;;4991313;28;20466;-69
2022/05/08 09:56:06;;;;;;;4.30;2.07;;;14.40;98.80;;;;;;4986515;28;20533;-68
2022/05/08 09:58:33;;;;;;;4.80;1.67;;;14.40;96.90;;;;;;4990205;28;20467;-68
2022/05/08 10:01:00;;;;;;;3.10;1.70;;;14.50;97.10;;;;;;4991283;28;20549;-68
2022/05/08 10:03:27;;;;;;;4.53;2.50;;;14.50;96.70;;;;;;4991799;28;21010;-69
2022/05/08 10:05:55;;;;;;;3.00;1.80;;;14.50;97.70;;;;;;4991600;28;20926;-69
2022/05/08 10:08:26;;;;;;;2.00;1.90;;;14.60;96.80;;;;;;4991022;28;20883;-69
2022/05/08 10:13:56;;;;;;;3.27;1.60;;;14.80;96.50;;;;;;4991897;28;20536;-69
2022/05/08 10:16:59;;;;;;;1.70;1.30;;;14.80;93.90;;;;;;4992200;28;20540;-69
2022/05/08 10:19:53;;;;;;;3.03;1.73;;;14.80;94.30;;;;;;4991550;28;20529;-68
2022/05/08 10:22:20;;;;;;;2.33;1.87;;;14.90;93.90;;;;;;4991329;28;20483;-68
2022/05/08 10:24:53;;;;;;;4.40;2.03;;;15.00;93.80;;;;;;4991851;28;20518;-69
2022/05/08 10:27:24;;;;;;;2.13;1.90;;;15.10;94.70;;;;;;4991684;28;20467;-68
2022/05/08 10:30:28;;;;;;;2.10;2.00;;;15.20;94.30;;;;;;4991899;28;20474;-70
2022/05/08 10:32:54;;;;;;;5.23;1.80;;;15.20;93.90;;;;;;4991489;28;20462;-68
2022/05/08 10:35:22;;;;;;;5.80;1.93;;;15.30;92.90;;;;;;4991041;28;20475;-68
2022/05/08 10:37:50;;;;;;;1.87;1.77;;;15.20;92.90;;;;;;4991208;28;20814;-68
2022/05/08 10:40:35;;;;;;;3.97;1.77;;;15.20;92.70;;;;;;4990343;28;20491;-68
2022/05/08 10:43:25;;;;;;;4.47;1.53;;;15.20;93.30;;;;;;4990919;28;20525;-68
2022/05/08 10:45:53;;;;;;;2.80;1.53;;;15.30;93.50;;;;;;4985148;28;20567;-69
2022/05/08 10:48:20;;;;;;;2.00;1.90;;;15.40;92.60;;;;;;4977639;28;20779;-68
2022/05/08 10:50:49;;;;;;;5.30;1.97;;;15.40;90.60;;;;;;4971335;28;20484;-69
2022/05/08 10:53:23;;;;;;;5.30;2.10;;;15.40;92.60;;;;;;4971950;28;20529;-68
2022/05/08 10:55:52;;;;;;;3.27;1.80;;;15.50;93.10;;;;;;4971807;28;20486;-68
2022/05/08 10:58:19;;;;;;;4.53;2.10;;;15.50;93.00;;;;;;4971757;28;20534;-69
2022/05/08 11:00:46;;;;;;;3.57;2.80;;;15.60;92.70;;;;;;4971370;28;20491;-69
2022/05/08 11:03:20;;;;;;;2.77;1.50;;;15.60;92.90;;;;;;4971962;28;20813;-69
2022/05/08 11:05:46;;;;;;;2.23;2.03;;;15.60;90.80;;;;;;4972014;28;20464;-68
2022/05/08 11:08:13;;;;;;;1.80;1.60;;;15.60;90.60;;;;;;4971089;28;20547;-69
2022/05/08 11:10:41;;;;;;;3.13;1.53;;;15.60;88.70;;;;;;4971584;28;20486;-69
2022/05/08 11:13:11;;;;;;;5.87;2.00;;;15.60;88.50;;;;;;4971501;28;20530;-70
2022/05/08 11:15:39;;;;;;;3.73;2.20;;;15.60;90.00;;;;;;4971539;28;20472;-68
2022/05/08 11:18:08;;;;;;;2.90;1.80;;;15.60;90.40;;;;;;4971595;28;20502;-69
2022/05/08 11:20:37;;;;;;;2.80;2.00;;;15.70;88.90;;;;;;4971546;28;20550;-68
2022/05/08 11:23:05;;;;;;;4.33;2.37;;;15.70;86.30;;;;;;4971009;28;20491;-68
2022/05/08 11:25:32;;;;;;;3.30;2.40;;;15.70;87.70;;;;;;4975485;28;20613;-69
2022/05/08 11:27:58;;;;;;;6.33;2.30;;;15.70;89.20;;;;;;4971098;28;21141;-69
2022/05/08 11:30:31;;;;;;;2.10;1.97;;;15.70;90.10;;;;;;4971127;28;20493;-68
2022/05/08 11:36:07;;;;;;;3.70;2.13;;;15.90;91.40;;;;;;4971379;28;20960;-69
2022/05/08 11:38:40;;;;;;;2.27;2.00;;;15.90;90.50;;;;;;4971300;28;20455;-68
2022/05/08 11:41:08;;;;;;;5.83;2.77;;;16.00;90.00;;;;;;4970586;28;20583;-69
2022/05/08 11:43:43;;;;;;;4.70;2.13;;;16.10;90.10;;;;;;4971482;28;20523;-70
2022/05/08 11:46:16;;;;;;;2.37;2.23;;;16.20;91.20;;;;;;4971271;28;20925;-69
2022/05/08 11:48:43;;;;;;;3.23;2.30;;;16.20;91.50;;;;;;4971563;28;20646;-68
2022/05/08 11:51:11;;;;;;;7.03;2.40;;;16.20;90.70;;;;;;4970830;28;20488;-69
2022/05/08 11:53:43;;;;;;;4.87;2.47;;;16.30;88.20;;;;;;4974350;28;20514;-69
2022/05/08 11:56:23;;;;;;;2.57;2.37;;;16.30;86.20;;;;;;4974785;28;20518;-68
2022/05/08 11:58:50;;;;;;;2.27;2.10;;;16.30;74.80;;;;;;4974794;28;20467;-69
2022/05/08 12:01:25;;;;;;;1.90;1.80;;;16.20;78.40;;;;;;4974485;28;20561;-68
2022/05/08 12:03:52;;;;;;;2.60;2.20;;;16.20;80.80;;;;;;4975387;28;20467;-68
2022/05/08 12:06:19;;;;;;;2.20;2.00;;;16.20;81.30;;;;;;4974383;28;20522;-68
2022/05/08 12:08:46;;;;;;;1.63;1.53;;;16.20;82.40;;;;;;4974350;28;20526;-70
2022/05/08 12:11:28;;;;;;;4.47;2.77;;;16.30;82.80;;;;;;4973673;28;20989;-68
2022/05/08 12:14:02;;;;;;;3.77;2.07;;;16.30;82.60;;;;;;4971815;28;20840;-69
2022/05/08 12:16:32;;;;;;;5.00;3.30;;;16.30;84.40;;;;;;4974243;28;20541;-68
2022/05/08 12:19:13;;;;;;;8.37;3.03;;;16.30;83.30;;;;;;4974436;28;20460;-69
2022/05/08 12:21:40;;;;;;;8.00;2.97;;;16.40;84.10;;;;;;4973846;28;20526;-68
2022/05/08 12:24:11;;;;;;;5.30;2.80;;;16.40;87.40;;;;;;4974345;28;20542;-69
2022/05/08 12:26:37;;;;;;;4.67;2.70;;;16.40;88.80;;;;;;4974099;28;20865;-68
2022/05/08 12:29:07;;;;;;;8.23;2.80;;;16.50;88.80;;;;;;4974442;28;20542;-69
2022/05/08 12:31:35;;;;;;;4.23;2.63;;;16.50;88.30;;;;;;4973505;28;20515;-68
2022/05/08 12:34:05;;;;;;;6.37;2.70;;;16.50;88.20;;;;;;4973956;28;20574;-68
2022/05/08 12:36:31;;;;;;;2.47;2.37;;;16.50;86.60;;;;;;4973705;28;20558;-68
2022/05/08 12:38:58;;;;;;;4.60;2.37;;;16.60;82.60;;;;;;4973874;28;20467;-70
2022/05/08 12:41:25;;;;;;;3.37;2.43;;;16.50;81.50;;;;;;4973180;28;21007;-69
2022/05/08 12:43:51;;;;;;;2.80;2.70;;;16.60;81.80;;;;;;4974074;28;20843;-68
2022/05/08 12:46:18;;;;;;;2.97;2.30;;;16.70;79.80;;;;;;4968524;28;20516;-68
2022/05/08 12:48:46;;;;;;;2.67;2.40;;;16.60;79.20;;;;;;4980900;28;20468;-69
2022/05/08 12:51:12;;;;;;;3.17;2.90;;;16.60;82.40;;;;;;4973271;28;21017;-69
2022/05/08 12:53:39;;;;;;;9.10;3.00;;;16.60;85.70;;;;;;4973031;28;20933;-68
2022/05/08 12:56:06;;;;;;;8.70;3.20;;;16.60;88.20;;;;;;4973827;28;20479;-68
2022/05/08 13:01:16;;;;;;;4.53;2.30;;;16.90;87.40;;;;;;4972746;28;20538;-69
2022/05/08 13:03:43;;;;;;;7.97;3.27;;;16.90;87.10;;;;;;4973539;28;20626;-69
2022/05/08 13:06:11;;;;;;;3.60;2.33;;;16.90;85.50;;;;;;4973150;28;20949;-68
2022/05/08 13:08:38;;;;;;;2.77;2.50;;;16.90;79.40;;;;;;4973156;28;20468;-69
2022/05/08 13:11:05;;;;;;;5.43;2.47;;;17.00;75.30;;;;;;4972751;28;20649;-68
2022/05/08 13:13:31;;;;;;;4.03;3.00;;;17.10;79.30;;;;;;4973152;28;20464;-68
2022/05/08 13:15:58;;;;;;;3.97;3.03;;;17.00;82.40;;;;;;4972924;28;20460;-68
2022/05/08 13:18:25;;;;;;;3.83;2.63;;;17.00;85.30;;;;;;4973279;28;20711;-68
2022/05/08 13:20:51;;;;;;;3.40;2.53;;;17.00;85.10;;;;;;4972674;28;20860;-68
2022/05/08 13:23:19;;;;;;;3.70;2.60;;;17.00;82.90;;;;;;4972590;28;21010;-68
2022/05/08 13:25:46;;;;;;;2.97;2.77;;;16.90;79.20;;;;;;4985212;28;20521;-68
2022/05/08 13:28:13;;;;;;;5.70;2.50;;;17.00;81.50;;;;;;4992021;28;20459;-68
2022/05/08 13:30:39;;;;;;;5.40;2.90;;;17.10;83.70;;;;;;4991765;28;21011;-69
2022/05/08 13:33:06;;;;;;;2.90;2.60;;;17.20;79.40;;;;;;4992567;28;20463;-68
2022/05/08 13:35:33;;;;;;;5.63;2.80;;;17.20;79.00;;;;;;4992635;28;20470;-67
2022/05/08 13:37:59;;;;;;;3.93;3.07;;;17.20;78.40;;;;;;4991537;28;20466;-68
2022/05/08 13:40:27;;;;;;;2.90;2.70;;;17.20;75.60;;;;;;4992023;28;20541;-68
2022/05/08 13:42:56;;;;;;;2.17;2.07;;;17.10;79.10;;;;;;4992200;28;20820;-68
2022/05/08 13:45:22;;;;;;;3.83;3.07;;;17.20;78.40;;;;;;4992172;28;20900;-68
2022/05/08 13:47:49;;;;;;;3.53;2.83;;;17.20;79.70;;;;;;4991830;28;20525;-67
2022/05/08 13:50:16;;;;;;;3.23;2.57;;;17.40;83.40;;;;;;4991739;28;20521;-68
2022/05/08 13:52:44;;;;;;;2.87;2.67;;;17.40;81.20;;;;;;4991196;28;20490;-68
2022/05/08 13:55:15;;;;;;;6.00;3.50;;;17.50;82.10;;;;;;4991982;28;20557;-67
2022/05/08 13:57:43;;;;;;;4.73;2.87;;;17.40;82.70;;;;;;4991862;28;20803;-67
2022/05/08 14:00:14;;;;;;;5.63;3.33;;;17.20;88.60;;;;;;4991641;28;20948;-67
2022/05/08 14:02:41;;;;;;;6.50;2.70;;;17.40;81.40;;;;;;4991840;28;20523;-68
2022/05/08 14:05:08;;;;;;;3.53;2.80;;;17.50;82.40;;;;;;4992231;28;20871;-68
2022/05/08 14:07:36;;;;;;;6.47;3.37;;;17.50;82.90;;;;;;4991331;28;20471;-68
2022/05/08 14:10:04;;;;;;;10.50;3.40;;;17.60;83.30;;;;;;4991092;28;20466;-67
2022/05/08 14:12:31;;;;;;;3.93;3.63;;;17.60;81.40;;;;;;4991366;28;20573;-67
2022/05/08 14:14:59;;;;;;;4.00;2.63;;;17.70;80.80;;;;;;4981058;28;20520;-67
2022/05/08 14:17:25;;;;;;;3.50;2.80;;;17.80;79.40;;;;;;4973929;28;20463;-68
2022/05/08 14:19:53;;;;;;;5.70;2.87;;;17.80;79.50;;;;;;4971823;28;20494;-67
2022/05/08 14:22:20;;;;;;;4.47;2.63;;;17.90;80.80;;;;;;4971717;28;20495;-67
2022/05/08 14:24:46;;;;;;;3.40;2.83;;;17.90;79.70;;;;;;4972108;28;20459;-68
2022/05/08 14:27:13;;;;;;;6.27;3.37;;;17.80;80.80;;;;;;4971889;28;20543;-68
2022/05/08 14:29:39;;;;;;;3.63;3.07;;;17.80;81.00;;;;;;4971615;28;20472;-68
2022/05/08 14:37:38;;;;;;;5.53;2.90;;;17.90;82.10;;;;;;4971588;28;20475;-70
2022/05/08 14:40:05;;;;;;;3.07;2.87;;;18.00;82.80;;;;;;4971555;28;20583;-68
2022/05/08 14:42:32;;;;;;;3.37;2.67;;;18.00;80.90;;;;;;4972022;28;20932;-68
2022/05/08 14:44:59;;;;;;;5.80;3.03;;;17.90;80.50;;;;;;4972108;28;20471;-69
2022/05/08 14:47:27;;;;;;;3.57;3.23;;;17.90;80.20;;;;;;4975298;28;20462;-70
2022/05/08 14:49:53;;;;;;;4.83;3.40;;;18.00;79.90;;;;;;4991153;28;20755;-71
2022/05/08 14:52:20;;;;;;;6.80;3.47;;;18.00;81.10;;;;;;4991102;28;20572;-69
2022/05/08 14:54:46;;;;;;;6.60;3.13;;;18.00;82.00;;;;;;4991536;28;20549;-69
2022/05/08 14:57:14;;;;;;;3.37;3.07;;;18.10;81.50;;;;;;4991234;28;20490;-69
2022/05/08 14:59:41;;;;;;;5.37;2.63;;;18.20;82.40;;;;;;4991019;28;20992;-68
2022/05/08 15:02:08;;;;;;;3.57;2.87;;;18.30;82.00;;;;;;4990816;28;20494;-69
2022/05/08 15:04:36;;;;;;;8.30;3.00;;;18.40;81.60;;;;;;4991251;28;20467;-69
2022/05/08 15:07:03;;;;;;;4.43;3.30;;;18.50;81.50;;;;;;4991717;28;20533;-69
2022/05/08 15:09:30;;;;;;;3.13;2.93;;;18.60;80.80;;;;;;4990766;28;20887;-69
2022/05/08 15:11:57;;;;;;;4.67;3.90;;;18.60;80.60;;;;;;4990725;28;21017;-68
2022/05/08 15:14:24;;;;;;;5.40;3.47;;;18.50;80.90;;;;;;4991077;28;20463;-68
2022/05/08 15:16:51;;;;;;;2.87;2.63;;;18.60;81.30;;;;;;4990789;28;20963;-69
2022/05/08 15:19:17;;;;;;;5.97;2.87;;;18.60;80.50;;;;;;4991203;28;20470;-67
2022/05/08 15:21:45;;;;;;;9.23;3.30;;;18.70;80.90;;;;;;4990600;28;20491;-69
2022/05/08 15:24:12;;;;;;;3.17;2.97;;;18.70;81.10;;;;;;4987158;28;20985;-69
2022/05/08 15:26:39;;;;;;;6.23;3.37;;;18.80;80.60;;;;;;4969661;28;20982;-68
2022/05/08 15:29:06;;;;;;;3.63;3.37;;;18.80;80.30;;;;;;4995192;28;20462;-69
2022/05/08 15:31:34;;;;;;;3.87;3.43;;;18.80;81.20;;;;;;4994486;28;20525;-70
2022/05/08 15:34:00;;;;;;;6.20;3.27;;;18.90;81.10;;;;;;4994683;28;20850;-69
2022/05/08 15:36:27;;;;;;;4.60;3.80;;;19.00;81.90;;;;;;4994069;28;21021;-68
2022/05/08 15:38:57;;;;;;;7.47;3.17;;;18.90;81.50;;;;;;4994059;28;20458;-68
2022/05/08 15:41:23;;;;;;;2.90;2.60;;;19.00;82.60;;;;;;4993718;28;20573;-69
2022/05/08 15:43:50;;;;;;;6.70;3.10;;;19.10;82.10;;;;;;4994137;28;20549;-68
2022/05/08 15:46:17;;;;;;;3.33;2.60;;;19.00;80.20;;;;;;4994408;28;20463;-69
2022/05/08 15:48:43;;;;;;;2.93;2.70;;;19.10;80.80;;;;;;4994390;28;20880;-68
2022/05/08 15:51:11;;;;;;;3.83;2.67;;;18.90;79.60;;;;;;4993406;28;20988;-68
2022/05/08 15:53:38;;;;;;;3.10;2.80;;;18.90;79.70;;;;;;4993936;28;20525;-68
2022/05/08 15:56:07;;;;;;;2.60;2.50;;;18.90;80.20;;;;;;4993845;28;21095;-69
2022/05/08 15:58:33;;;;;;;3.20;3.00;;;18.90;80.70;;;;;;4994120;28;20469;-69
2022/05/08 16:01:00;;;;;;;2.97;2.77;;;18.90;80.60;;;;;;4993636;28;20557;-69
2022/05/08 16:03:26;;;;;;;4.33;3.37;;;19.10;80.30;;;;;;4993585;28;20986;-67
2022/05/08 16:05:53;;;;;;;3.60;2.80;;;19.20;78.40;;;;;;4993905;28;20523;-70
2022/05/08 16:08:20;;;;;;;3.70;3.20;;;19.20;77.90;;;;;;4993600;28;20891;-68
2022/05/08 16:10:46;;;;;;;2.70;2.40;;;19.10;77.50;;;;;;4993441;28;20541;-68
2022/05/08 16:24:10;;;;;;;3.33;2.33;;;18.80;77.90;;;;;;4974346;28;20463;-67
2022/05/08 16:26:38;;;;;;;4.00;2.57;;;18.80;75.80;;;;;;4974214;28;20498;-68
2022/05/08 16:29:07;;;;;;;4.60;2.50;;;18.80;76.00;;;;;;4974494;28;20491;-67
2022/05/08 16:31:33;;;;;;;6.33;1.97;;;18.80;75.80;;;;;;4973428;28;20542;-68
2022/05/08 16:34:00;;;;;;;2.97;2.30;;;18.80;74.30;;;;;;4973875;28;20496;-67
2022/05/08 16:36:27;;;;;;;4.03;2.47;;;18.60;73.80;;;;;;4973496;28;20506;-67
2022/05/08 16:38:53;;;;;;;2.23;2.03;;;18.50;74.30;;;;;;4973186;28;20961;-67
2022/05/08 16:41:20;;;;;;;4.53;2.73;;;18.50;74.20;;;;;;4974116;28;20480;-68
2022/05/08 16:43:47;;;;;;;3.73;1.70;;;18.40;74.30;;;;;;4974601;28;20495;-67
2022/05/08 16:46:16;;;;;;;5.20;1.93;;;18.40;75.20;;;;;;4968412;28;20516;-67
2022/05/08 16:48:45;;;;;;;1.90;1.80;;;18.40;75.10;;;;;;4966683;28;20844;-68
2022/05/08 16:51:12;;;;;;;2.53;2.17;;;18.40;74.20;;;;;;4973610;28;20495;-67
2022/05/08 16:53:39;;;;;;;2.40;2.20;;;18.50;74.40;;;;;;4974243;28;20464;-68
2022/05/08 16:56:06;;;;;;;4.20;2.10;;;18.50;74.40;;;;;;4974586;28;20467;-68
2022/05/08 16:58:32;;;;;;;2.60;2.40;;;18.50;74.80;;;;;;4975835;28;20523;-68
2022/05/08 17:01:01;;;;;;;3.63;3.33;;;18.50;75.20;;;;;;4974236;28;21017;-68
2022/05/08 17:03:29;;;;;;;2.17;1.60;;;18.30;74.90;;;;;;4974909;28;20487;-68
2022/05/08 17:05:56;;;;;;;2.23;1.70;;;18.20;76.60;;;;;;4973570;28;20546;-68
2022/05/08 17:08:24;;;;;;;2.40;2.20;;;18.00;77.30;;;;;;4973020;28;20514;-68
2022/05/08 17:10:50;;;;;;;1.83;1.63;;;18.00;77.80;;;;;;4973223;28;20682;-68
2022/05/08 17:13:17;;;;;;;2.03;1.80;;;18.00;77.50;;;;;;4973341;28;20546;-68
2022/05/08 17:15:44;;;;;;;1.87;1.80;;;18.00;78.40;;;;;;4973649;28;20522;-68
2022/05/08 17:18:11;;;;;;;2.10;2.00;;;18.00;78.60;;;;;;4973469;28;20472;-68
2022/05/08 17:20:39;;;;;;;2.27;2.03;;;18.00;78.70;;;;;;4972637;28;20488;-68
2022/05/08 17:23:08;;;;;;;1.90;1.50;;;18.00;79.00;;;;;;4972254;28;20578;-68
2022/05/08 17:25:35;;;;;;;4.10;1.90;;;17.90;78.70;;;;;;4979943;28;20491;-68
2022/05/08 17:30:47;;;;;;;3.07;1.73;;;17.70;77.70;;;;;;4991937;28;20566;-68
2022/05/08 17:33:13;;;;;;;3.33;2.00;;;17.60;78.00;;;;;;4992293;28;20459;-68